Sunday, December 17, 2017, 3:25 PM CST
Back to Local

KMDW, Chicago Midway Airport

Location: Chicago, IL, United States Lat: 41.783
Local Time: 3:25 PM CST (21:25 GMT) Lon: -87.75
Time Zone: US/Central Elev: 620 ft

Show me the last for .
Show Decoded

2017-12-17 14:53 METAR KMDW 172053Z 26004KT 10SM BKN130 OVC250 08/M01 A2998 RMK AO2 SLP159
                 T00831006 55016 =
2017-12-17 13:53 METAR KMDW 171953Z 22004KT 10SM FEW130 BKN220 OVC250 07/00 A2998 RMK AO2 SLP158
                 T00720000 =
2017-12-17 12:53 METAR KMDW 171853Z 20005KT 10SM FEW120 BKN220 OVC250 06/00 A3000 RMK AO2 SLP169
                 T00560000 =
2017-12-17 11:53 METAR KMDW 171753Z 21006KT 10SM BKN130 OVC250 03/M01 A3003 RMK AO2 SLP177
                 T00331006 10044 20017 58005 =
2017-12-17 10:53 METAR KMDW 171653Z 18004KT 10SM FEW008 BKN130 OVC250 03/M01 A3005 RMK AO2 SLP186
                 T00281006 =
2017-12-17 09:53 METAR KMDW 171553Z 16007KT 10SM FEW008 SCT130 OVC250 04/01 A3007 RMK AO2 SLP190
                 T00390011 =
2017-12-17 08:53 METAR KMDW 171453Z 01005KT 7SM SCT008 OVC160 03/02 A3004 RMK AO2 SLP181
                 T00330017 58005 =
2017-12-17 08:51 METAR KMDW 171451Z 02005KT 7SM SCT008 OVC160 03/02 A3004 RMK AO2 =
2017-12-17 07:53 METAR KMDW 171353Z 00000KT 7SM OVC008 02/01 A3006 RMK AO2 SLP189 T00220006 =
2017-12-17 07:34 METAR KMDW 171334Z 17005KT 8SM BKN009 OVC200 02/01 A3007 RMK AO2 T00220011 =
2017-12-17 06:53 METAR KMDW 171253Z 06005KT 8SM FEW009 OVC200 03/02 A3006 RMK AO2 SLP187
                 T00280017 =
2017-12-17 05:53 METAR KMDW 171153Z 02004KT 10SM BKN210 03/02 A3006 RMK AO2 SLP187 T00280017
                 10028 20000 56003 =
2017-12-17 04:53 METAR KMDW 171053Z 01004KT 10SM BKN230 02/01 A3006 RMK AO2 SLP188 T00220011 =
2017-12-17 03:53 METAR KMDW 170953Z 00000KT 10SM BKN250 02/01 A3005 RMK AO2 SLP183 T00220011 =
2017-12-17 02:53 METAR KMDW 170853Z 36004KT 10SM SCT250 01/00 A3007 RMK AO2 SLP190 T00110000
                 53009 =
2017-12-17 01:53 METAR KMDW 170753Z 00000KT 10SM SCT250 02/00 A3006 RMK AO2 SLP186 T00170000 =
2017-12-17 00:53 METAR KMDW 170653Z 36004KT 10SM SCT250 02/00 A3005 RMK AO2 SLP182 T00170000 =
2017-12-16 23:53 METAR KMDW 170553Z 04004KT 10SM SCT250 02/00 A3004 RMK AO2 SLP181 T00170000
                 10061 20011 400890011 50001 =
2017-12-16 22:53 METAR KMDW 170453Z 01003KT 10SM SCT250 03/01 A3007 RMK AO2 SLP189 T00280006 =
2017-12-16 21:53 METAR KMDW 170353Z COR 02003KT 10SM FEW250 03/01 A3006 RMK AO2 SLP186 T00330006
                 =
2017-12-16 20:53 METAR KMDW 170253Z 00000KT 10SM CLR 03/00 A3004 RMK AO2 SLP182 T00280000 51018 =
2017-12-16 19:53 METAR KMDW 170153Z 07004KT 10SM CLR 03/00 A3004 RMK AO2 SLP180 T00330000 =
2017-12-16 18:53 METAR KMDW 170053Z 08003KT 10SM CLR 04/M01 A3002 RMK AO2 SLP172 T00441011 =
2017-12-16 17:53 METAR KMDW 162353Z 00000KT 10SM FEW250 06/M03 A2999 RMK AO2 SLP162 T00611028
                 10089 20044 51026 =
2017-12-16 16:53 METAR KMDW 162253Z 00000KT 10SM FEW250 07/M03 A2997 RMK AO2 SLP156 T00721033 =
2017-12-16 15:53 METAR KMDW 162153Z 22004KT 10SM FEW250 08/M03 A2994 RMK AO2 SLP145 T00781028 =

Support USWX by starting your Amazon purchase here.